Pine Hill, New York
Current Conditions -  °F | °C
As of 11:55 AM on Saturday 22 Nov 2014 (Local Time) from KMSV Reporting Station
Clear Clear  
Wind Chill: 29°   Ceiling: Unl
Heat Index: 36°   Visibility: 10mi
Dew Point: 12°   Wind: 8mph
Humidity: 38%   Direction: 190°S
Pressure: 30.25"   Gusts: NA
Location:  42.13°N, 74.46°W
Report Text: KMSV 221655Z AUTO 19007KT 10SM CLR 02/M11 A3025 RMK AO1
Loading
Personal Weather Stations






























Interactive Weather Map New forecast layout! Learn more

10-Day Weather Forecast

Advertisements
Track Severe Weather on mobile